createdAt,value
2022-11-16T00:01:48.081Z,9.61
2022-11-16T00:06:41.260Z,9.60
2022-11-16T00:11:34.015Z,9.59
2022-11-16T00:16:25.790Z,9.54
2022-11-16T00:21:17.489Z,9.45
2022-11-16T00:26:12.178Z,9.42
2022-11-16T00:31:07.128Z,9.44
2022-11-16T00:36:02.497Z,9.48
2022-11-16T00:40:54.215Z,9.47
2022-11-16T00:45:46.100Z,9.46
2022-11-16T00:50:38.780Z,9.41
2022-11-16T00:55:30.756Z,9.38
2022-11-16T01:00:22.499Z,9.37
2022-11-16T01:05:14.191Z,9.47
2022-11-16T01:10:12.082Z,9.46
2022-11-16T01:15:08.776Z,9.43
2022-11-16T01:20:00.653Z,9.38
2022-11-16T01:24:52.466Z,9.45
2022-11-16T01:29:45.179Z,9.47
2022-11-16T01:34:37.107Z,9.47
2022-11-16T01:39:28.816Z,9.43
2022-11-16T01:44:32.969Z,9.42
2022-11-16T01:49:29.388Z,9.45
2022-11-16T01:54:21.063Z,9.44
2022-11-16T01:59:15.068Z,9.45
2022-11-16T02:04:09.863Z,9.46
2022-11-16T02:09:39.866Z,9.46
2022-11-16T02:14:54.499Z,9.43
2022-11-16T02:20:26.156Z,9.53
2022-11-16T02:25:29.900Z,9.79
2022-11-16T02:30:22.530Z,9.77
2022-11-16T02:35:31.968Z,9.82
2022-11-16T02:40:31.416Z,9.77
2022-11-16T02:45:29.273Z,9.63
2022-11-16T02:50:23.699Z,9.60
2022-11-16T02:55:15.929Z,9.54
2022-11-16T03:00:15.254Z,9.53
2022-11-16T03:05:34.000Z,9.61
2022-11-16T03:10:45.025Z,9.63
2022-11-16T03:15:41.288Z,9.89
2022-11-16T03:20:37.808Z,10.05
2022-11-16T03:25:58.072Z,10.03
2022-11-16T03:31:12.364Z,9.84
2022-11-16T03:36:15.247Z,9.84
2022-11-16T03:41:10.761Z,9.79
2022-11-16T03:46:02.503Z,9.83
2022-11-16T03:50:54.220Z,9.86
2022-11-16T03:55:49.781Z,9.90
2022-11-16T04:00:41.749Z,10.04
2022-11-16T04:05:51.900Z,9.98
2022-11-16T04:11:02.940Z,9.95
2022-11-16T04:16:13.364Z,9.95
2022-11-16T04:21:24.246Z,9.90
2022-11-16T04:26:16.315Z,9.87
2022-11-16T04:31:31.165Z,9.83
2022-11-16T04:36:42.507Z,9.85
2022-11-16T04:41:53.458Z,9.81
2022-11-16T04:47:04.877Z,9.74
2022-11-16T04:51:56.636Z,9.65
2022-11-16T04:56:48.626Z,9.55
2022-11-16T18:29:28.682Z,8.97
